createdAt,value
2022-08-19T00:01:37.762Z,22.18
2022-08-19T00:07:00.919Z,22.21
2022-08-19T00:12:22.721Z,22.23
2022-08-19T00:17:45.570Z,22.17
2022-08-19T00:23:07.734Z,22.23
2022-08-19T00:28:29.456Z,22.20
2022-08-19T00:33:51.390Z,22.12
2022-08-19T00:39:14.559Z,22.12
2022-08-19T00:44:36.446Z,22.07
2022-08-19T00:50:00.043Z,22.06
2022-08-19T00:55:24.973Z,22.09
2022-08-19T01:00:48.107Z,22.01
2022-08-19T01:06:09.991Z,22.00
2022-08-19T01:11:35.504Z,21.99
2022-08-19T01:17:00.912Z,21.95
2022-08-19T01:22:28.812Z,21.97
2022-08-19T01:27:53.854Z,22.00
2022-08-19T01:33:16.608Z,21.96
2022-08-19T01:38:44.382Z,21.97
2022-08-19T01:44:17.722Z,21.97
2022-08-19T01:49:41.709Z,21.97
2022-08-19T01:55:06.518Z,21.96
2022-08-19T02:00:31.383Z,21.95
2022-08-19T02:06:00.893Z,21.91
2022-08-19T02:11:34.783Z,21.95
2022-08-19T02:16:57.013Z,21.93
2022-08-19T02:22:18.740Z,21.90
2022-08-19T02:27:42.027Z,21.83
2022-08-19T02:33:03.849Z,21.82
2022-08-19T02:38:28.523Z,21.74
2022-08-19T02:44:29.534Z,21.68
2022-08-19T02:49:34.700Z,21.68
2022-08-19T02:54:58.368Z,21.62
2022-08-19T03:00:20.207Z,21.65
2022-08-19T03:05:48.470Z,21.64
2022-08-19T03:11:20.192Z,21.60
2022-08-19T03:16:48.511Z,21.57
2022-08-19T03:22:10.460Z,21.58
2022-08-19T03:27:34.474Z,21.60
2022-08-19T03:32:57.158Z,21.55
2022-08-19T03:38:19.172Z,21.50
2022-08-19T03:43:41.950Z,21.46
2022-08-19T03:49:08.313Z,21.46
2022-08-19T03:54:30.219Z,21.42
2022-08-19T03:59:51.964Z,21.38
2022-08-19T04:05:14.999Z,21.42
2022-08-19T04:10:38.301Z,21.32
2022-08-19T04:16:00.075Z,21.19
2022-08-19T04:21:24.595Z,21.11
2022-08-19T04:26:47.412Z,20.96
2022-08-19T04:32:10.104Z,21.02
2022-08-19T04:37:35.563Z,20.92
2022-08-19T04:42:57.557Z,20.94
2022-08-19T04:48:27.795Z,20.98
2022-08-19T04:53:50.072Z,20.95
2022-08-19T04:59:11.837Z,21.02
2022-08-19T05:04:33.822Z,21.09
2022-08-19T05:09:58.808Z,21.09
2022-08-19T05:15:20.960Z,21.10
2022-08-19T05:21:01.358Z,21.12
2022-08-19T05:26:23.261Z,21.08
2022-08-19T05:31:45.998Z,21.13
2022-08-19T05:37:08.470Z,21.10
2022-08-19T05:42:31.509Z,21.07
2022-08-19T05:47:53.291Z,21.09
2022-08-19T05:53:17.264Z,21.10
2022-08-19T05:58:40.180Z,21.13
2022-08-19T06:04:03.562Z,21.20
2022-08-19T06:09:25.471Z,21.18
2022-08-19T06:14:47.210Z,21.21
2022-08-19T06:20:52.301Z,21.20
2022-08-19T06:26:05.212Z,21.20
2022-08-19T06:31:28.846Z,21.17
2022-08-19T06:36:53.002Z,21.19
2022-08-19T06:42:17.997Z,21.09
2022-08-19T06:47:39.857Z,21.04
2022-08-19T06:53:04.563Z,20.96
2022-08-19T06:58:27.104Z,20.90
2022-08-19T07:03:54.651Z,20.90
2022-08-19T07:09:19.278Z,20.85
2022-08-19T07:14:43.136Z,20.95
2022-08-19T07:20:09.319Z,20.99
2022-08-19T07:25:32.489Z,21.03
2022-08-19T07:30:55.475Z,20.96
2022-08-19T07:36:20.107Z,20.96
2022-08-19T07:41:42.301Z,20.93
2022-08-19T07:47:05.049Z,20.89
2022-08-19T07:52:26.780Z,20.89
2022-08-19T07:57:48.564Z,20.93
2022-08-19T08:03:16.288Z,20.93
2022-08-19T08:08:43.949Z,20.95
2022-08-19T08:14:09.166Z,20.86
2022-08-19T08:19:51.868Z,20.65
2022-08-19T08:25:20.670Z,20.58
2022-08-19T08:30:45.266Z,20.43
2022-08-19T08:36:07.779Z,20.50
2022-08-19T08:41:42.866Z,20.62
2022-08-19T08:47:11.315Z,20.65
2022-08-19T08:52:43.607Z,20.59
2022-08-19T08:58:16.929Z,20.60
2022-08-19T09:03:43.419Z,20.72
2022-08-19T09:09:17.846Z,20.84
2022-08-19T09:14:52.348Z,20.87
2022-08-19T09:20:21.525Z,20.76
2022-08-19T09:25:43.328Z,20.86
2022-08-19T09:31:05.178Z,20.95
2022-08-19T09:36:34.416Z,20.94
2022-08-19T09:41:56.944Z,21.03
2022-08-19T09:47:20.075Z,21.03
2022-08-19T09:52:43.252Z,21.13
2022-08-19T09:58:17.341Z,21.18
2022-08-19T10:03:39.171Z,21.29
2022-08-19T10:09:01.634Z,21.30
2022-08-19T10:14:24.527Z,21.36
2022-08-19T10:19:55.102Z,21.39
2022-08-19T10:25:18.350Z,21.43
2022-08-19T10:30:41.162Z,21.44
2022-08-19T10:36:06.586Z,21.48
2022-08-19T10:41:31.915Z,21.52
2022-08-19T10:46:53.660Z,21.57
2022-08-19T10:52:38.850Z,21.64
2022-08-19T10:58:04.226Z,21.73
2022-08-19T11:03:30.110Z,21.82
2022-08-19T11:08:53.202Z,21.85
2022-08-19T11:14:18.340Z,21.84
2022-08-19T11:19:40.184Z,21.88
2022-08-19T11:25:01.929Z,21.93
2022-08-19T11:30:23.848Z,21.98
2022-08-19T11:35:45.954Z,22.04
2022-08-19T11:41:08.346Z,22.13
2022-08-19T11:46:30.495Z,22.18
2022-08-19T11:51:53.798Z,22.21
2022-08-19T11:57:17.791Z,22.24
2022-08-19T12:02:40.228Z,22.30
2022-08-19T12:08:02.038Z,22.33
2022-08-19T12:13:23.892Z,22.36
2022-08-19T12:18:51.824Z,22.37
2022-08-19T12:24:13.760Z,22.21
2022-08-19T12:29:35.484Z,22.18
2022-08-19T12:34:57.234Z,22.10
2022-08-19T12:40:20.086Z,22.12
2022-08-19T12:45:43.443Z,22.10
2022-08-19T12:51:11.052Z,22.15
2022-08-19T12:56:34.333Z,22.18
2022-08-19T13:01:56.206Z,22.26
2022-08-19T13:07:18.050Z,22.34
2022-08-19T13:12:40.195Z,22.38
2022-08-19T13:18:02.472Z,22.27
2022-08-19T13:23:24.237Z,22.21
2022-08-19T13:29:05.293Z,22.10
2022-08-19T13:39:53.112Z,21.97
2022-08-19T13:45:18.784Z,21.91
2022-08-19T13:50:44.220Z,21.83
2022-08-19T13:56:07.422Z,21.76
2022-08-19T14:01:29.190Z,21.62
2022-08-19T14:06:50.933Z,21.54
2022-08-19T14:12:12.657Z,21.43
2022-08-19T14:17:35.756Z,21.35
2022-08-19T14:22:57.530Z,21.40
2022-08-19T14:28:19.283Z,21.39
2022-08-19T14:33:41.439Z,21.39
2022-08-19T14:39:07.441Z,21.41
2022-08-19T14:44:29.231Z,21.59
2022-08-19T14:49:51.388Z,21.67
2022-08-19T14:55:15.420Z,21.68
2022-08-19T15:00:37.201Z,21.65
2022-08-19T15:06:01.557Z,21.74
2022-08-19T15:11:27.421Z,21.77
2022-08-19T15:16:49.356Z,21.86
2022-08-19T15:22:11.097Z,21.98
2022-08-19T15:27:33.002Z,22.03
2022-08-19T15:32:56.274Z,22.13
2022-08-19T15:38:22.344Z,22.13
2022-08-19T15:43:44.479Z,22.20
2022-08-19T15:49:07.350Z,22.23
2022-08-19T15:54:29.138Z,22.31
2022-08-19T16:00:09.563Z,22.35
2022-08-19T16:05:51.750Z,22.39
2022-08-19T16:11:18.799Z,22.46
2022-08-19T16:16:41.976Z,22.44
2022-08-19T16:22:04.946Z,22.37
2022-08-19T16:27:26.913Z,22.33
2022-08-19T16:32:48.692Z,22.30
2022-08-19T16:38:11.441Z,22.19
2022-08-19T16:43:33.966Z,22.12
2022-08-19T16:54:18.235Z,21.96
2022-08-19T16:59:48.432Z,21.89
2022-08-19T17:05:11.314Z,21.86
2022-08-19T17:10:33.093Z,21.86
2022-08-19T17:15:55.239Z,21.78
2022-08-19T17:21:16.960Z,21.81
2022-08-19T17:26:38.912Z,21.75
2022-08-19T17:32:00.764Z,21.78
2022-08-19T17:37:22.967Z,21.71
2022-08-19T17:42:48.121Z,21.71
2022-08-19T17:48:10.558Z,21.61
2022-08-19T17:53:32.313Z,21.64
2022-08-19T17:58:59.700Z,21.62
2022-08-19T18:04:24.732Z,21.60
2022-08-19T18:09:51.554Z,21.57
2022-08-19T18:15:15.180Z,21.48
2022-08-19T18:20:37.269Z,21.32
2022-08-19T18:25:59.279Z,21.41
2022-08-19T18:31:23.319Z,21.39
2022-08-19T18:36:54.264Z,21.30
2022-08-19T18:42:36.232Z,21.12
2022-08-19T18:48:27.004Z,21.09
2022-08-19T18:53:50.630Z,21.05
2022-08-19T18:59:14.196Z,21.01
2022-08-19T19:04:38.331Z,20.95
2022-08-19T19:10:00.242Z,20.89
2022-08-19T19:15:22.134Z,20.88
2022-08-19T19:20:44.041Z,20.94
2022-08-19T19:26:07.036Z,20.93
2022-08-19T19:31:28.983Z,20.88
2022-08-19T19:36:51.950Z,20.95
2022-08-19T19:42:20.014Z,21.03
2022-08-19T19:47:44.511Z,21.10
2022-08-19T19:53:06.424Z,21.16
2022-08-19T19:58:30.161Z,21.16
2022-08-19T20:03:51.966Z,21.20
2022-08-19T20:09:19.679Z,21.16
2022-08-19T20:14:41.794Z,21.19
2022-08-19T20:20:04.050Z,21.20
2022-08-19T20:25:25.980Z,21.26
2022-08-19T20:30:48.059Z,21.36
2022-08-19T20:36:10.318Z,21.31
2022-08-19T20:41:32.099Z,21.32
2022-08-19T20:46:57.526Z,21.29
2022-08-19T20:52:21.293Z,21.27
2022-08-19T20:57:43.182Z,21.30
2022-08-19T21:03:05.814Z,21.35
2022-08-19T21:08:28.500Z,21.42
2022-08-19T21:13:50.268Z,21.50
2022-08-19T21:19:12.966Z,21.54
2022-08-19T21:24:34.901Z,21.63
2022-08-19T21:29:56.742Z,21.74
2022-08-19T21:35:19.626Z,21.81
2022-08-19T21:40:41.388Z,21.87
2022-08-19T21:46:04.330Z,21.91
2022-08-19T21:51:26.225Z,21.98
2022-08-19T21:56:47.933Z,22.04
2022-08-19T22:02:19.637Z,22.05
2022-08-19T22:07:43.292Z,22.07
2022-08-19T22:13:05.078Z,22.09
2022-08-19T22:18:28.121Z,22.12
2022-08-19T22:23:49.874Z,22.12
2022-08-19T22:29:11.693Z,22.14
2022-08-19T22:34:38.473Z,22.15
2022-08-19T22:40:05.649Z,22.16
2022-08-19T22:45:28.468Z,22.16
2022-08-19T22:51:10.102Z,22.17
2022-08-19T22:56:31.858Z,22.12
2022-08-19T23:01:53.679Z,22.10
2022-08-19T23:07:23.816Z,22.12
2022-08-19T23:12:48.726Z,22.12
2022-08-19T23:18:10.692Z,22.11
2022-08-19T23:23:32.737Z,22.03
2022-08-19T23:29:13.136Z,22.00
2022-08-19T23:34:34.904Z,22.01
2022-08-19T23:39:56.682Z,21.94
2022-08-19T23:45:23.787Z,21.87
2022-08-19T23:50:46.383Z,21.80
2022-08-19T23:56:10.588Z,21.77
